createdAt,value
2019-03-09T00:00:11.949Z,4.45
2019-03-09T00:02:40.676Z,3.75
2019-03-09T00:05:09.804Z,3.83
2019-03-09T00:07:38.550Z,3.52
2019-03-09T00:10:09.341Z,3.60
2019-03-09T00:12:38.121Z,4.50
2019-03-09T00:15:08.020Z,3.75
2019-03-09T00:17:36.830Z,3.70
2019-03-09T00:20:07.909Z,4.15
2019-03-09T00:22:36.729Z,4.10
2019-03-09T00:25:19.494Z,3.70
2019-03-09T00:27:52.828Z,7.22
2019-03-09T00:30:23.262Z,4.70
2019-03-09T00:32:52.047Z,4.42
2019-03-09T00:35:20.859Z,3.62
2019-03-09T00:37:49.694Z,4.30
2019-03-09T00:40:18.844Z,4.58
2019-03-09T00:42:47.683Z,3.90
2019-03-09T00:45:16.482Z,2.85
2019-03-09T00:47:45.209Z,4.55
2019-03-09T00:50:14.044Z,4.33
2019-03-09T00:52:42.889Z,4.75
2019-03-09T00:55:12.789Z,4.20
2019-03-09T00:57:41.558Z,5.20
2019-03-09T01:00:16.320Z,4.70
2019-03-09T01:02:45.370Z,4.67
2019-03-09T01:05:14.650Z,4.75
2019-03-09T01:07:43.406Z,4.55
2019-03-09T01:10:14.379Z,4.37
2019-03-09T01:12:43.214Z,5.62
2019-03-09T01:15:12.313Z,4.83
2019-03-09T01:17:41.045Z,5.50
2019-03-09T01:20:12.314Z,5.22
2019-03-09T01:22:41.080Z,5.58
2019-03-09T01:25:10.883Z,4.90
2019-03-09T01:27:39.604Z,5.70
2019-03-09T01:30:11.581Z,4.95
2019-03-09T01:32:40.340Z,5.33
2019-03-09T01:35:09.151Z,4.87
2019-03-09T01:37:37.893Z,5.47
2019-03-09T01:40:09.725Z,5.70
2019-03-09T01:42:38.447Z,5.42
2019-03-09T01:45:10.197Z,5.03
2019-03-09T01:47:38.928Z,5.70
2019-03-09T01:50:10.523Z,4.97
2019-03-09T01:52:39.296Z,6.05
2019-03-09T01:55:15.570Z,6.22
2019-03-09T01:57:44.674Z,5.08
2019-03-09T02:00:15.820Z,5.60
2019-03-09T02:02:44.564Z,5.25
2019-03-09T02:05:13.483Z,5.92
2019-03-09T02:07:42.192Z,5.45
2019-03-09T02:10:14.906Z,6.37
2019-03-09T02:12:43.639Z,6.25
2019-03-09T02:15:14.689Z,6.10
2019-03-09T02:17:43.533Z,6.37
2019-03-09T02:20:16.918Z,5.60
2019-03-09T02:22:45.654Z,5.85
2019-03-09T02:25:14.853Z,5.70
2019-03-09T02:27:43.606Z,4.75
2019-03-09T02:30:16.449Z,7.00
2019-03-09T02:32:45.509Z,6.22
2019-03-09T02:35:15.158Z,5.95
2019-03-09T02:37:43.910Z,5.65
2019-03-09T02:40:17.892Z,5.70
2019-03-09T02:42:46.625Z,6.03
2019-03-09T02:45:17.971Z,7.00
2019-03-09T02:47:46.731Z,5.30
2019-03-09T02:50:16.363Z,6.35
2019-03-09T02:52:45.202Z,5.70
2019-03-09T02:55:14.370Z,4.83
2019-03-09T02:57:43.108Z,6.60
2019-03-09T03:00:15.220Z,5.53
2019-03-09T03:02:45.663Z,6.92
2019-03-09T03:05:15.577Z,6.53
2019-03-09T03:07:44.368Z,5.53
2019-03-09T03:10:14.701Z,6.17
2019-03-09T03:12:43.518Z,5.70
2019-03-09T03:15:14.862Z,5.83
2019-03-09T03:20:19.347Z,5.40
2019-03-09T03:22:48.150Z,5.30
2019-03-09T03:25:17.207Z,5.70
2019-03-09T03:27:46.345Z,5.40
2019-03-09T03:30:15.082Z,5.50
2019-03-09T03:32:44.180Z,6.15
2019-03-09T03:35:13.155Z,4.87
2019-03-09T03:37:41.874Z,5.30
2019-03-09T03:40:11.441Z,5.75
2019-03-09T03:42:40.255Z,5.25
2019-03-09T03:45:11.137Z,5.72
2019-03-09T03:47:39.901Z,4.75
2019-03-09T03:50:08.923Z,4.47
2019-03-09T03:52:37.687Z,4.35
2019-03-09T03:55:08.705Z,5.80
2019-03-09T03:57:37.442Z,4.95
2019-03-09T04:00:09.409Z,5.25
2019-03-09T04:02:38.227Z,4.70
2019-03-09T04:05:07.093Z,5.55
2019-03-09T04:07:36.255Z,4.00
2019-03-09T04:10:07.633Z,5.70
2019-03-09T04:12:36.538Z,5.25
2019-03-09T04:15:06.642Z,5.55
2019-03-09T04:17:35.477Z,5.40
2019-03-09T04:20:06.474Z,5.12
2019-03-09T04:22:35.291Z,4.72
2019-03-09T04:25:04.708Z,6.75
2019-03-09T04:27:33.561Z,5.45
2019-03-09T04:30:02.601Z,5.03
2019-03-09T04:32:31.438Z,5.55
2019-03-09T04:35:00.441Z,5.20
2019-03-09T04:37:29.185Z,4.92
2019-03-09T04:39:57.952Z,4.72
2019-03-09T04:42:26.803Z,4.80
2019-03-09T04:44:55.653Z,4.70
2019-03-09T04:47:24.490Z,5.05
2019-03-09T04:49:53.238Z,4.53
2019-03-09T04:52:21.985Z,3.92
2019-03-09T04:54:50.738Z,4.40
2019-03-09T04:57:19.487Z,4.60
2019-03-09T04:59:48.249Z,5.17
2019-03-09T05:02:16.990Z,5.00
2019-03-09T05:04:46.799Z,5.92
2019-03-09T05:07:19.548Z,4.42
2019-03-09T05:09:51.403Z,4.83
2019-03-09T05:12:20.174Z,6.50
2019-03-09T05:14:48.897Z,5.30
2019-03-09T05:17:17.665Z,5.58
2019-03-09T05:19:46.458Z,4.67
2019-03-09T05:22:15.197Z,5.00
2019-03-09T05:24:43.981Z,5.03
2019-03-09T05:27:12.704Z,5.60
2019-03-09T05:29:41.499Z,5.72
2019-03-09T05:32:10.298Z,5.70
2019-03-09T05:34:39.049Z,5.33
2019-03-09T05:37:07.854Z,4.67
2019-03-09T05:39:36.597Z,5.83
2019-03-09T05:42:05.365Z,5.72
2019-03-09T05:44:34.185Z,5.17
2019-03-09T05:47:02.957Z,5.62
2019-03-09T05:49:31.766Z,5.78
2019-03-09T05:52:21.531Z,5.00
2019-03-09T05:54:50.425Z,4.80
2019-03-09T05:57:19.194Z,5.70
2019-03-09T05:59:48.045Z,5.70
2019-03-09T06:02:16.822Z,5.83
2019-03-09T06:04:45.569Z,5.35
2019-03-09T06:07:14.305Z,6.37
2019-03-09T06:09:43.056Z,6.00
2019-03-09T06:12:11.845Z,3.90
2019-03-09T06:14:40.628Z,5.95
2019-03-09T06:17:09.352Z,5.65
2019-03-09T06:19:38.100Z,5.50
2019-03-09T06:22:06.863Z,5.40
2019-03-09T06:24:35.612Z,6.90
2019-03-09T06:27:04.380Z,5.85
2019-03-09T06:29:33.127Z,5.95
2019-03-09T06:32:33.253Z,6.42
2019-03-09T06:35:02.015Z,4.85
2019-03-09T06:37:32.305Z,5.75
2019-03-09T06:40:01.095Z,5.67
2019-03-09T06:42:35.639Z,5.70
2019-03-09T06:45:06.718Z,5.65
2019-03-09T06:47:35.509Z,5.10
2019-03-09T06:50:06.665Z,6.37
2019-03-09T06:52:35.481Z,5.10
2019-03-09T06:55:05.462Z,6.35
2019-03-09T06:57:34.251Z,5.60
2019-03-09T07:00:15.148Z,6.00
2019-03-09T07:02:43.913Z,5.03
2019-03-09T07:05:12.671Z,5.00
2019-03-09T07:07:44.262Z,5.10
2019-03-09T07:10:13.061Z,4.85
2019-03-09T07:12:42.066Z,5.47
2019-03-09T07:15:21.857Z,5.20
2019-03-09T07:17:51.837Z,5.08
2019-03-09T07:20:20.644Z,5.50
2019-03-09T07:22:49.393Z,5.08
2019-03-09T07:25:18.161Z,5.45
2019-03-09T07:28:04.071Z,5.35
2019-03-09T07:30:32.867Z,5.30
2019-03-09T07:33:04.669Z,4.83
2019-03-09T07:35:33.455Z,4.67
2019-03-09T07:38:02.244Z,4.40
2019-03-09T07:40:31.170Z,5.42
2019-03-09T07:43:00.298Z,4.62
2019-03-09T07:45:29.107Z,4.85
2019-03-09T07:47:57.881Z,4.95
2019-03-09T07:50:26.703Z,3.67
2019-03-09T07:52:55.806Z,3.62
2019-03-09T07:55:24.890Z,3.50
2019-03-09T07:58:01.936Z,3.60
2019-03-09T08:00:30.890Z,3.45
2019-03-09T08:02:59.851Z,3.42
2019-03-09T08:05:29.182Z,3.33
2019-03-09T08:07:57.987Z,3.20
2019-03-09T08:10:28.550Z,2.60
2019-03-09T08:12:57.331Z,3.10
2019-03-09T08:15:26.261Z,3.35
2019-03-09T08:17:55.922Z,2.30
2019-03-09T08:20:24.836Z,2.60
2019-03-09T08:22:53.701Z,2.87
2019-03-09T08:25:23.625Z,2.12
2019-03-09T08:27:52.645Z,2.70
2019-03-09T08:30:26.134Z,2.40
2019-03-09T08:32:54.893Z,2.33
2019-03-09T08:35:23.762Z,1.70
2019-03-09T08:37:52.719Z,2.40
2019-03-09T08:40:22.217Z,2.33
2019-03-09T08:42:51.072Z,2.55
2019-03-09T08:45:21.014Z,2.98
2019-03-09T08:47:52.385Z,2.60
2019-03-09T08:50:23.526Z,2.80
2019-03-09T08:52:52.483Z,2.50
2019-03-09T08:55:22.109Z,3.30
2019-03-09T08:57:50.966Z,3.33
2019-03-09T09:00:31.100Z,3.20
2019-03-09T09:02:59.950Z,2.42
2019-03-09T09:05:28.713Z,3.02
2019-03-09T09:07:57.521Z,1.90
2019-03-09T09:10:26.336Z,2.37
2019-03-09T09:12:55.110Z,2.70
2019-03-09T09:15:23.937Z,1.70
2019-03-09T09:17:52.693Z,2.08
2019-03-09T09:20:24.502Z,1.95
2019-03-09T09:22:53.253Z,1.70
2019-03-09T09:25:22.035Z,2.20
2019-03-09T09:27:51.994Z,1.25
2019-03-09T09:30:26.796Z,1.50
2019-03-09T09:32:55.870Z,1.30
2019-03-09T09:35:24.602Z,1.60
2019-03-09T09:37:53.514Z,1.67
2019-03-09T09:40:26.074Z,2.15
2019-03-09T09:42:57.705Z,1.72
2019-03-09T09:45:26.789Z,2.10
2019-03-09T09:47:55.758Z,1.45
2019-03-09T09:50:24.689Z,1.95
2019-03-09T09:55:20.717Z,1.50
2019-03-09T09:57:49.526Z,1.45
2019-03-09T10:00:23.938Z,1.62
2019-03-09T10:02:52.679Z,1.80
2019-03-09T10:05:22.309Z,1.98
2019-03-09T10:07:51.597Z,1.80
2019-03-09T10:10:21.533Z,1.70
2019-03-09T10:12:50.327Z,1.70
2019-03-09T10:15:21.197Z,1.40
2019-03-09T10:17:50.036Z,1.77
2019-03-09T10:20:18.859Z,1.60
2019-03-09T10:22:47.801Z,1.80
2019-03-09T10:25:16.689Z,2.12
2019-03-09T10:27:45.530Z,1.70
2019-03-09T10:30:21.946Z,2.05
2019-03-09T10:32:50.848Z,2.00
2019-03-09T10:35:19.923Z,2.45
2019-03-09T10:37:49.532Z,1.70
2019-03-09T10:40:19.221Z,2.25
2019-03-09T10:42:48.186Z,1.80
2019-03-09T10:45:21.292Z,3.42
2019-03-09T10:47:50.844Z,2.02
2019-03-09T10:50:21.280Z,2.12
2019-03-09T10:52:50.092Z,1.30
2019-03-09T10:55:27.269Z,1.57
2019-03-09T10:57:56.049Z,1.52
2019-03-09T11:00:27.889Z,2.00
2019-03-09T11:02:56.712Z,2.10
2019-03-09T11:05:25.592Z,1.30
2019-03-09T11:07:54.632Z,1.42
2019-03-09T11:10:23.481Z,1.77
2019-03-09T11:12:52.222Z,2.00
2019-03-09T11:15:20.985Z,2.08
2019-03-09T11:17:49.959Z,1.62
2019-03-09T11:20:20.241Z,2.80
2019-03-09T11:22:52.133Z,1.45
2019-03-09T11:25:20.938Z,2.17
2019-03-09T11:27:49.726Z,1.40
2019-03-09T11:30:23.958Z,2.10
2019-03-09T11:32:52.842Z,1.75
2019-03-09T11:35:21.622Z,1.85
2019-03-09T11:37:50.622Z,1.90
2019-03-09T11:40:19.379Z,2.00
2019-03-09T11:42:48.154Z,2.00
2019-03-09T11:45:18.754Z,1.67
2019-03-09T11:47:47.676Z,1.70
2019-03-09T11:50:17.911Z,1.20
2019-03-09T11:52:46.895Z,1.67
2019-03-09T11:55:16.848Z,1.25
2019-03-09T11:57:45.713Z,2.08
2019-03-09T12:00:23.886Z,1.60
2019-03-09T12:02:52.733Z,1.50
2019-03-09T12:05:21.514Z,1.62
2019-03-09T12:07:50.266Z,1.52
2019-03-09T12:10:19.217Z,1.72
2019-03-09T12:12:47.753Z,2.30
2019-03-09T12:15:17.266Z,1.80
2019-03-09T12:17:45.756Z,2.23
2019-03-09T12:20:17.236Z,2.40
2019-03-09T12:22:45.770Z,2.00
2019-03-09T12:25:16.238Z,2.40
2019-03-09T12:27:44.777Z,2.00
2019-03-09T12:30:15.764Z,2.20
2019-03-09T12:32:44.329Z,1.50
2019-03-09T12:35:12.952Z,1.70
2019-03-09T12:37:41.831Z,1.80
2019-03-09T12:40:21.412Z,1.57
2019-03-09T12:42:50.620Z,2.60
2019-03-09T12:45:19.413Z,2.20
2019-03-09T12:47:48.224Z,2.30
2019-03-09T12:50:22.105Z,2.20
2019-03-09T12:52:50.938Z,2.37
2019-03-09T12:55:19.707Z,2.08
2019-03-09T12:57:51.448Z,2.25
2019-03-09T13:00:24.376Z,2.27
2019-03-09T13:02:53.310Z,2.45
2019-03-09T13:05:22.089Z,2.20
2019-03-09T13:07:50.905Z,2.15
2019-03-09T13:10:19.694Z,2.20
2019-03-09T13:12:48.474Z,4.60
2019-03-09T13:15:17.436Z,2.25
2019-03-09T13:17:46.473Z,2.15
2019-03-09T13:20:16.517Z,2.58
2019-03-09T13:22:45.376Z,2.50
2019-03-09T13:25:14.722Z,2.45
2019-03-09T13:27:43.580Z,2.45
2019-03-09T13:30:20.515Z,1.82
2019-03-09T13:32:49.316Z,1.77
2019-03-09T13:35:18.142Z,2.27
2019-03-09T13:37:46.980Z,8.93
2019-03-09T13:40:16.569Z,1.62
2019-03-09T13:42:45.374Z,2.65
2019-03-09T13:45:15.458Z,2.45
2019-03-09T13:47:44.331Z,2.67
2019-03-09T13:50:14.227Z,2.80
2019-03-09T13:52:43.342Z,2.70
2019-03-09T13:55:13.060Z,2.35
2019-03-09T13:57:42.215Z,3.02
2019-03-09T14:00:15.627Z,3.55
2019-03-09T14:02:44.365Z,3.72
2019-03-09T14:05:13.239Z,2.75
2019-03-09T14:07:45.510Z,3.55
2019-03-09T14:10:15.875Z,3.00
2019-03-09T14:12:44.692Z,4.20
2019-03-09T14:15:15.095Z,3.58
2019-03-09T14:17:43.899Z,4.75
2019-03-09T14:20:16.660Z,4.00
2019-03-09T14:22:45.429Z,4.75
2019-03-09T14:25:17.214Z,5.78
2019-03-09T14:27:46.109Z,4.35
2019-03-09T14:30:17.068Z,6.30
2019-03-09T14:32:45.811Z,6.10
2019-03-09T14:35:14.966Z,6.60
2019-03-09T14:37:43.904Z,4.50
2019-03-09T14:40:14.307Z,3.85
2019-03-09T14:42:43.808Z,6.00
2019-03-09T14:45:20.645Z,4.83
2019-03-09T14:47:49.444Z,5.53
2019-03-09T14:50:37.208Z,5.55
2019-03-09T14:53:25.332Z,4.95
2019-03-09T14:56:13.114Z,7.20
2019-03-09T15:01:54.403Z,6.87
2019-03-09T15:04:42.198Z,5.72
2019-03-09T15:07:30.277Z,5.70
2019-03-09T15:10:18.074Z,5.33
2019-03-09T15:13:05.926Z,5.95
2019-03-09T15:15:53.704Z,6.08
2019-03-09T15:18:41.546Z,4.17
2019-03-09T15:21:29.305Z,3.45
2019-03-09T15:24:17.401Z,4.90
2019-03-09T15:27:05.172Z,5.22
2019-03-09T15:38:43.764Z,4.97
2019-03-09T16:08:19.081Z,3.50
2019-03-09T16:11:06.897Z,3.02
2019-03-09T16:13:54.714Z,2.80
2019-03-09T16:16:42.517Z,2.50
2019-03-09T16:19:30.373Z,2.98
2019-03-09T16:22:18.127Z,1.70
2019-03-09T16:25:06.275Z,1.62
2019-03-09T16:27:54.117Z,1.80
2019-03-09T16:39:19.733Z,2.25
2019-03-09T16:42:07.885Z,2.40
2019-03-09T16:44:55.688Z,1.90
2019-03-09T16:47:43.467Z,2.27
2019-03-09T16:50:31.250Z,2.25
2019-03-09T16:53:19.041Z,2.40
2019-03-09T16:56:06.841Z,2.12
2019-03-09T16:58:54.676Z,2.52
2019-03-09T17:01:42.421Z,2.17
2019-03-09T17:04:30.219Z,3.17
2019-03-09T17:13:12.320Z,3.67
2019-03-09T17:24:49.267Z,1.90
2019-03-09T17:39:29.629Z,2.65
2019-03-09T17:54:25.369Z,2.70
2019-03-09T19:09:05.187Z,4.78
2019-03-09T19:23:42.560Z,4.25
2019-03-09T20:02:15.999Z,5.78
2019-03-09T20:52:51.958Z,1.60
2019-03-09T20:55:20.795Z,1.98
2019-03-09T20:57:49.587Z,1.52
2019-03-09T21:00:22.319Z,2.10
2019-03-09T21:02:51.172Z,0.95
2019-03-09T21:05:19.913Z,1.52
2019-03-09T21:07:49.093Z,1.82
2019-03-09T21:10:19.229Z,1.70
2019-03-09T21:12:56.567Z,1.50
2019-03-09T21:15:25.367Z,1.55
2019-03-09T21:17:54.158Z,1.10
2019-03-09T21:20:22.981Z,1.35
2019-03-09T21:22:51.821Z,1.67
2019-03-09T21:25:20.556Z,1.50
2019-03-09T21:27:49.343Z,1.80
2019-03-09T21:30:18.159Z,1.90
2019-03-09T21:32:46.931Z,1.70
2019-03-09T21:35:15.737Z,1.80
2019-03-09T21:37:44.515Z,1.30
2019-03-09T21:40:13.390Z,1.40
2019-03-09T21:42:42.353Z,1.70
2019-03-09T21:45:13.166Z,1.57
2019-03-09T21:47:41.993Z,1.80
2019-03-09T21:50:12.993Z,2.37
2019-03-09T21:52:41.751Z,2.70
2019-03-09T21:55:16.299Z,2.75
2019-03-09T21:57:45.121Z,1.92
2019-03-09T22:00:20.901Z,2.17
2019-03-09T22:02:50.564Z,1.67
2019-03-09T22:05:19.573Z,1.02
2019-03-09T22:07:48.316Z,2.00
2019-03-09T22:10:19.051Z,1.70
2019-03-09T22:12:47.883Z,1.72
2019-03-09T22:15:17.772Z,1.50
2019-03-09T22:17:46.505Z,1.87
2019-03-09T22:20:17.169Z,1.40
2019-03-09T22:22:46.023Z,1.40
2019-03-09T22:25:17.999Z,1.92
2019-03-09T22:27:46.870Z,1.75
2019-03-09T22:30:17.136Z,1.27
2019-03-09T22:32:45.961Z,1.37
2019-03-09T22:35:15.629Z,1.77
2019-03-09T22:37:44.392Z,1.45
2019-03-09T22:40:14.497Z,1.30
2019-03-09T22:42:43.296Z,1.70
2019-03-09T22:45:14.352Z,1.75
2019-03-09T22:47:43.157Z,1.55
2019-03-09T22:50:14.439Z,1.20
2019-03-09T22:52:43.213Z,1.57
2019-03-09T22:55:17.906Z,1.52
2019-03-09T22:57:46.744Z,1.07
2019-03-09T23:00:24.529Z,1.10
2019-03-09T23:02:53.304Z,2.30
2019-03-09T23:05:22.168Z,1.50
2019-03-09T23:07:50.981Z,1.12
2019-03-09T23:10:25.081Z,1.15
2019-03-09T23:12:53.830Z,1.35
2019-03-09T23:15:22.578Z,1.00
2019-03-09T23:17:51.631Z,1.32
2019-03-09T23:20:20.402Z,2.37
2019-03-09T23:22:49.176Z,2.98
2019-03-09T23:25:18.235Z,1.60
2019-03-09T23:27:47.050Z,1.05
2019-03-09T23:30:19.943Z,1.50
2019-03-09T23:32:48.823Z,1.70
2019-03-09T23:35:19.119Z,1.22
2019-03-09T23:37:48.219Z,1.20
2019-03-09T23:40:18.404Z,2.00
2019-03-09T23:42:47.397Z,1.00
2019-03-09T23:45:17.948Z,1.10
2019-03-09T23:47:46.844Z,1.55
2019-03-09T23:50:17.166Z,1.87
2019-03-09T23:52:46.405Z,2.10
2019-03-09T23:55:22.041Z,1.20
2019-03-09T23:57:47.881Z,1.70
